createdAt,value
2023-01-03T00:00:10.097Z,287.00
2023-01-03T00:01:10.014Z,287.00
2023-01-03T00:02:10.078Z,287.00
2023-01-03T00:03:09.951Z,286.00
2023-01-03T00:04:09.978Z,285.00
2023-01-03T00:05:09.966Z,284.00
2023-01-03T00:06:09.886Z,281.00
2023-01-03T00:07:09.829Z,285.00
2023-01-03T00:08:09.816Z,284.00
2023-01-03T00:09:09.781Z,285.00
2023-01-03T00:10:09.738Z,282.00
2023-01-03T00:11:09.731Z,283.00
2023-01-03T00:12:09.725Z,282.00
2023-01-03T00:13:09.664Z,282.00
2023-01-03T00:14:09.630Z,281.00
2023-01-03T00:15:09.626Z,280.00
2023-01-03T00:16:09.593Z,279.00
2023-01-03T00:17:09.766Z,281.00
2023-01-03T00:18:09.542Z,280.00
2023-01-03T00:23:09.383Z,277.00
2023-01-03T00:31:09.216Z,281.00
2023-01-03T00:33:09.136Z,285.00
2023-01-03T00:34:09.056Z,282.00
2023-01-03T00:35:09.036Z,282.00
2023-01-03T00:36:09.004Z,281.00
2023-01-03T00:37:08.984Z,279.00
2023-01-03T03:13:05.297Z,281.00
2023-01-03T03:45:04.845Z,281.00
2023-01-03T03:58:04.659Z,286.00
2023-01-03T04:05:04.573Z,292.00
2023-01-03T04:06:04.531Z,292.00
2023-01-03T04:14:04.429Z,286.00
2023-01-03T04:25:04.293Z,284.00
2023-01-03T04:47:04.116Z,284.00
2023-01-03T04:51:04.078Z,284.00
2023-01-03T04:55:04.002Z,286.00
2023-01-03T04:57:03.981Z,283.00
2023-01-03T04:58:03.962Z,284.00
2023-01-03T04:59:03.953Z,285.00
2023-01-03T05:01:04.016Z,287.00
2023-01-03T05:08:03.843Z,289.00
2023-01-03T05:09:03.834Z,288.00
2023-01-03T05:13:03.795Z,282.00
2023-01-03T05:21:03.699Z,286.00
2023-01-03T05:27:03.625Z,285.00
2023-01-03T05:28:03.605Z,287.00
2023-01-03T05:32:03.616Z,283.00
2023-01-03T05:33:03.565Z,282.00
2023-01-03T05:38:03.506Z,288.00
2023-01-03T05:41:03.520Z,288.00
2023-01-03T05:43:03.444Z,291.00
2023-01-03T05:44:03.436Z,292.00
2023-01-03T06:01:03.229Z,294.00
2023-01-03T06:06:03.148Z,294.00
2023-01-03T06:08:03.134Z,293.00
2023-01-03T06:17:03.129Z,289.00
2023-01-03T06:18:03.040Z,290.00
2023-01-03T06:20:03.027Z,290.00
2023-01-03T06:26:02.965Z,289.00
2023-01-03T06:27:02.971Z,290.00
2023-01-03T06:33:02.890Z,289.00
2023-01-03T06:40:02.796Z,287.00
2023-01-03T06:41:02.788Z,287.00
2023-01-03T06:42:02.781Z,286.00
2023-01-03T06:44:02.741Z,287.00
2023-01-03T06:45:02.725Z,286.00
2023-01-03T06:55:02.638Z,282.00
2023-01-03T06:56:02.638Z,281.00
2023-01-03T07:01:02.919Z,283.00
2023-01-03T07:02:02.785Z,286.00
2023-01-03T07:03:08.871Z,287.00
2023-01-03T07:04:03.626Z,289.00
2023-01-03T07:05:02.611Z,290.00
2023-01-03T07:06:02.558Z,289.00
2023-01-03T07:07:02.551Z,289.00
2023-01-03T07:08:02.534Z,286.00
2023-01-03T07:09:02.533Z,288.00
2023-01-03T07:10:02.544Z,289.00
2023-01-03T07:11:02.523Z,288.00
2023-01-03T07:12:02.517Z,286.00
2023-01-03T07:13:02.543Z,285.00
2023-01-03T07:14:02.487Z,284.00
2023-01-03T07:15:02.532Z,281.00
2023-01-03T07:16:02.535Z,279.00
2023-01-03T07:17:02.471Z,281.00
2023-01-03T07:18:02.490Z,282.00
2023-01-03T07:19:02.456Z,282.00
2023-01-03T07:20:02.487Z,282.00
2023-01-03T07:21:02.447Z,285.00
2023-01-03T07:22:02.442Z,289.00
2023-01-03T07:23:02.450Z,292.00
2023-01-03T07:24:02.451Z,290.00
2023-01-03T07:25:02.427Z,290.00
2023-01-03T07:26:02.435Z,288.00
2023-01-03T07:27:02.384Z,289.00
2023-01-03T07:28:06.517Z,288.00
2023-01-03T07:29:03.487Z,285.00
2023-01-03T07:30:02.492Z,287.00
2023-01-03T07:31:02.465Z,283.00
2023-01-03T07:32:02.445Z,283.00
2023-01-03T07:33:02.475Z,285.00
2023-01-03T07:34:02.430Z,286.00
2023-01-03T07:35:02.418Z,288.00
2023-01-03T07:36:07.602Z,287.00
2023-01-03T07:37:03.404Z,289.00
2023-01-03T07:38:02.382Z,285.00
2023-01-03T07:39:02.398Z,282.00
2023-01-03T07:40:02.404Z,284.00
2023-01-03T07:41:02.357Z,286.00
2023-01-03T07:42:02.373Z,286.00
2023-01-03T07:43:02.357Z,287.00
2023-01-03T07:44:02.347Z,289.00
2023-01-03T07:45:02.351Z,292.00
2023-01-03T07:46:02.352Z,291.00
2023-01-03T07:47:02.297Z,288.00
2023-01-03T07:48:02.295Z,289.00
2023-01-03T07:49:05.155Z,290.00
2023-01-03T07:50:03.265Z,289.00
2023-01-03T07:51:02.270Z,285.00
2023-01-03T07:52:02.244Z,286.00
2023-01-03T07:53:02.253Z,286.00
2023-01-03T07:54:02.212Z,285.00
2023-01-03T07:55:02.207Z,284.00
2023-01-03T07:56:04.435Z,281.00
2023-01-03T07:57:03.172Z,282.00
2023-01-03T07:58:02.186Z,283.00
2023-01-03T07:59:02.202Z,285.00
2023-01-03T08:00:02.155Z,285.00
2023-01-03T08:01:02.119Z,285.00
2023-01-03T08:02:02.231Z,285.00
2023-01-03T08:03:02.178Z,284.00
2023-01-03T08:04:02.074Z,285.00
2023-01-03T08:05:02.128Z,286.00
2023-01-03T08:06:02.051Z,289.00
2023-01-03T08:07:02.023Z,286.00
2023-01-03T08:08:02.020Z,286.00
2023-01-03T08:09:06.106Z,286.00
2023-01-03T08:10:02.031Z,286.00
2023-01-03T08:11:01.981Z,285.00
2023-01-03T08:12:01.977Z,285.00
2023-01-03T08:13:01.943Z,285.00
2023-01-03T08:14:01.962Z,284.00
2023-01-03T08:15:01.926Z,285.00
2023-01-03T08:16:01.947Z,287.00
2023-01-03T08:17:01.909Z,284.00
2023-01-03T08:18:01.927Z,286.00
2023-01-03T08:19:01.880Z,285.00
2023-01-03T08:20:01.863Z,285.00
2023-01-03T08:21:01.889Z,286.00
2023-01-03T08:22:01.837Z,287.00
2023-01-03T08:23:01.873Z,287.00
2023-01-03T08:24:01.830Z,285.00
2023-01-03T08:25:01.810Z,285.00
2023-01-03T08:26:01.793Z,284.00
2023-01-03T08:27:01.782Z,282.00
2023-01-03T08:28:01.767Z,284.00
2023-01-03T08:29:01.749Z,284.00
2023-01-03T08:30:01.757Z,286.00
2023-01-03T08:31:01.763Z,286.00
2023-01-03T08:32:01.751Z,285.00
2023-01-03T08:33:01.693Z,285.00
2023-01-03T08:34:01.664Z,284.00
2023-01-03T08:35:01.655Z,284.00
2023-01-03T08:36:01.654Z,287.00
2023-01-03T08:37:01.646Z,289.00
2023-01-03T08:38:01.642Z,288.00
2023-01-03T08:39:01.605Z,289.00
2023-01-03T08:40:01.611Z,287.00
2023-01-03T08:41:01.588Z,287.00
2023-01-03T08:42:01.566Z,287.00
2023-01-03T08:43:01.539Z,287.00
2023-01-03T08:44:01.509Z,288.00
2023-01-03T08:45:01.501Z,285.00
2023-01-03T08:46:01.495Z,285.00
2023-01-03T08:47:01.517Z,286.00
2023-01-03T08:48:01.486Z,286.00
2023-01-03T08:49:01.439Z,290.00
2023-01-03T08:50:01.545Z,289.00
2023-01-03T08:51:01.413Z,289.00
2023-01-03T08:52:01.383Z,290.00
2023-01-03T08:53:01.382Z,294.00
2023-01-03T08:54:01.371Z,292.00
2023-01-03T08:55:01.321Z,292.00
2023-01-03T08:56:01.303Z,291.00
2023-01-03T08:57:01.286Z,288.00
2023-01-03T08:58:01.285Z,293.00
2023-01-03T08:59:01.253Z,293.00
2023-01-03T09:00:01.263Z,293.00
2023-01-03T09:01:01.226Z,293.00
2023-01-03T09:02:01.466Z,292.00
2023-01-03T09:03:01.415Z,325.00
2023-01-03T09:04:01.254Z,324.00
2023-01-03T09:05:01.186Z,324.00
2023-01-03T09:06:01.127Z,323.00
2023-01-03T09:07:01.104Z,322.00
2023-01-03T09:08:01.080Z,317.00
2023-01-03T09:09:01.078Z,313.00
2023-01-03T09:10:01.116Z,312.00
2023-01-03T09:11:01.034Z,313.00
2023-01-03T09:12:01.021Z,312.00
2023-01-03T09:13:01.001Z,309.00
2023-01-03T09:14:00.988Z,309.00
2023-01-03T09:15:01.021Z,309.00
2023-01-03T09:16:01.590Z,310.00
2023-01-03T09:17:01.047Z,310.00
2023-01-03T09:18:00.923Z,309.00
2023-01-03T09:19:00.915Z,308.00
2023-01-03T09:20:00.977Z,308.00
2023-01-03T09:21:00.888Z,310.00
2023-01-03T09:22:00.883Z,308.00
2023-01-03T09:23:00.873Z,308.00
2023-01-03T09:24:00.865Z,309.00
2023-01-03T09:25:00.835Z,309.00
2023-01-03T09:26:00.824Z,307.00
2023-01-03T09:27:00.828Z,308.00
2023-01-03T09:28:00.799Z,309.00
2023-01-03T09:29:00.765Z,308.00
2023-01-03T09:30:00.815Z,309.00
2023-01-03T09:31:00.829Z,312.00
2023-01-03T09:32:00.904Z,318.00
2023-01-03T09:33:00.713Z,321.00
2023-01-03T09:34:00.691Z,326.00
2023-01-03T09:35:00.674Z,328.00
2023-01-03T09:36:00.675Z,330.00
2023-01-03T09:37:00.649Z,330.00
2023-01-03T09:38:00.646Z,332.00
2023-01-03T09:39:01.533Z,336.00
2023-01-03T09:40:00.595Z,337.00
2023-01-03T09:41:00.618Z,335.00
2023-01-03T09:42:00.574Z,334.00
2023-01-03T09:43:00.535Z,335.00
2023-01-03T09:44:00.559Z,337.00
2023-01-03T09:45:00.512Z,338.00
2023-01-03T09:46:00.513Z,340.00
2023-01-03T09:47:00.512Z,336.00
2023-01-03T09:48:00.453Z,336.00
2023-01-03T09:49:00.425Z,338.00
2023-01-03T09:51:21.045Z,337.00
2023-01-03T09:52:01.390Z,333.00
2023-01-03T09:53:00.336Z,331.00
2023-01-03T09:54:00.393Z,332.00
2023-01-03T09:55:00.350Z,331.00
2023-01-03T09:56:00.323Z,330.00
2023-01-03T09:57:00.261Z,329.00
2023-01-03T09:58:00.257Z,327.00
2023-01-03T09:59:00.225Z,328.00
2023-01-03T10:00:00.233Z,325.00
2023-01-03T10:01:00.240Z,325.00
2023-01-03T10:02:00.359Z,324.00
2023-01-03T10:03:00.300Z,324.00
2023-01-03T10:04:00.128Z,326.00
2023-01-03T10:05:00.100Z,327.00
2023-01-03T10:06:00.137Z,325.00
2023-01-03T10:07:00.094Z,325.00
2023-01-03T10:08:00.056Z,322.00
2023-01-03T10:09:00.029Z,322.00
2023-01-03T10:09:59.990Z,322.00
2023-01-03T10:10:59.988Z,326.00
2023-01-03T10:11:59.961Z,324.00
2023-01-03T10:12:59.959Z,325.00
2023-01-03T10:13:59.916Z,325.00
2023-01-03T10:14:59.912Z,323.00
2023-01-03T10:15:59.935Z,323.00
2023-01-03T10:16:59.890Z,322.00
2023-01-03T10:17:59.842Z,324.00
2023-01-03T10:18:59.818Z,324.00
2023-01-03T10:19:59.798Z,329.00
2023-01-03T10:20:59.786Z,328.00
2023-01-03T10:21:59.803Z,329.00
2023-01-03T10:22:59.966Z,326.00
2023-01-03T10:23:59.729Z,326.00
2023-01-03T10:24:59.715Z,327.00
2023-01-03T10:25:59.696Z,327.00
2023-01-03T10:26:59.692Z,329.00
2023-01-03T10:27:59.675Z,328.00
2023-01-03T10:28:59.670Z,330.00
2023-01-03T10:29:59.650Z,329.00
2023-01-03T10:31:07.063Z,328.00
2023-01-03T10:32:00.718Z,329.00
2023-01-03T10:32:59.602Z,329.00
2023-01-03T10:33:59.639Z,330.00
2023-01-03T10:34:59.583Z,331.00
2023-01-03T10:35:59.552Z,328.00
2023-01-03T10:36:59.550Z,328.00
2023-01-03T10:37:59.517Z,326.00
2023-01-03T10:38:59.541Z,325.00
2023-01-03T10:39:59.507Z,326.00
2023-01-03T10:40:59.514Z,327.00
2023-01-03T10:41:59.510Z,325.00
2023-01-03T10:42:59.455Z,327.00
2023-01-03T10:43:59.466Z,327.00
2023-01-03T10:44:59.436Z,327.00
2023-01-03T10:45:59.472Z,328.00
2023-01-03T10:46:59.392Z,329.00
2023-01-03T10:47:59.421Z,328.00
2023-01-03T10:49:26.564Z,327.00
2023-01-03T10:50:00.348Z,327.00
2023-01-03T10:50:59.327Z,329.00
2023-01-03T10:51:59.300Z,327.00
2023-01-03T10:52:59.272Z,328.00
2023-01-03T10:53:59.280Z,326.00
2023-01-03T10:54:59.242Z,325.00
2023-01-03T10:55:59.226Z,326.00
2023-01-03T10:56:59.248Z,324.00
2023-01-03T10:57:59.207Z,325.00
2023-01-03T10:58:59.171Z,325.00
2023-01-03T10:59:59.168Z,324.00
2023-01-03T11:00:59.239Z,322.00
2023-01-03T11:02:00.201Z,321.00
2023-01-03T11:02:59.301Z,320.00
2023-01-03T11:03:59.161Z,319.00
2023-01-03T11:04:59.097Z,319.00
2023-01-03T11:05:59.084Z,320.00
2023-01-03T11:06:59.072Z,319.00
2023-01-03T11:07:59.078Z,320.00
2023-01-03T11:08:59.047Z,322.00
2023-01-03T11:09:59.055Z,322.00
2023-01-03T11:10:59.035Z,322.00
2023-01-03T11:11:58.993Z,323.00
2023-01-03T11:12:58.998Z,322.00
2023-01-03T11:13:58.969Z,322.00
2023-01-03T11:14:58.953Z,324.00
2023-01-03T11:15:58.955Z,320.00
2023-01-03T11:16:59.037Z,319.00
2023-01-03T11:17:58.920Z,320.00
2023-01-03T11:18:58.907Z,321.00
2023-01-03T11:19:58.946Z,321.00
2023-01-03T11:20:58.892Z,319.00
2023-01-03T11:21:58.861Z,317.00
2023-01-03T11:22:58.848Z,316.00
2023-01-03T11:23:58.818Z,315.00
2023-01-03T11:24:58.835Z,318.00
2023-01-03T11:25:58.802Z,320.00
2023-01-03T11:26:58.832Z,320.00
2023-01-03T11:27:58.804Z,321.00
2023-01-03T11:28:58.763Z,326.00
2023-01-03T11:29:58.753Z,325.00
2023-01-03T11:30:58.728Z,325.00
2023-01-03T11:31:58.751Z,325.00
2023-01-03T11:32:58.709Z,325.00
2023-01-03T11:33:58.690Z,324.00
2023-01-03T11:35:27.934Z,325.00
2023-01-03T11:35:59.649Z,327.00
2023-01-03T11:36:58.634Z,326.00
2023-01-03T11:37:58.619Z,327.00
2023-01-03T11:38:58.649Z,328.00
2023-01-03T11:39:58.590Z,329.00
2023-01-03T11:40:58.603Z,329.00
2023-01-03T11:41:58.568Z,327.00
2023-01-03T11:42:58.589Z,328.00
2023-01-03T11:43:58.546Z,327.00
2023-01-03T11:44:58.541Z,325.00
2023-01-03T11:45:58.594Z,324.00
2023-01-03T11:46:58.515Z,326.00
2023-01-03T11:47:58.499Z,326.00
2023-01-03T11:48:58.489Z,326.00
2023-01-03T11:49:58.461Z,327.00
2023-01-03T11:50:58.468Z,326.00
2023-01-03T11:51:58.427Z,326.00
2023-01-03T11:52:58.458Z,325.00
2023-01-03T11:53:58.411Z,323.00
2023-01-03T11:54:58.380Z,324.00
2023-01-03T11:55:58.403Z,324.00
2023-01-03T11:56:58.354Z,323.00
2023-01-03T11:57:58.335Z,323.00
2023-01-03T11:58:58.395Z,324.00
2023-01-03T11:59:58.317Z,324.00
2023-01-03T12:00:58.356Z,322.00
2023-01-03T12:01:58.392Z,323.00
2023-01-03T12:02:58.334Z,323.00
2023-01-03T12:03:58.338Z,323.00
2023-01-03T12:04:58.258Z,323.00
2023-01-03T12:05:58.221Z,324.00
2023-01-03T12:07:21.371Z,321.00
2023-01-03T12:07:59.183Z,321.00
2023-01-03T12:08:58.179Z,323.00
2023-01-03T12:09:58.161Z,321.00
2023-01-03T12:10:58.168Z,322.00
2023-01-03T12:11:58.149Z,321.00
2023-01-03T12:12:58.145Z,319.00
2023-01-03T12:13:58.107Z,317.00
2023-01-03T12:15:00.608Z,320.00
2023-01-03T12:15:58.142Z,317.00
2023-01-03T12:16:58.077Z,318.00
2023-01-03T12:17:58.091Z,318.00
2023-01-03T12:18:58.078Z,317.00
2023-01-03T12:19:58.039Z,315.00
2023-01-03T12:20:58.024Z,314.00
2023-01-03T12:21:58.000Z,315.00
2023-01-03T12:22:58.006Z,317.00
2023-01-03T12:23:57.985Z,318.00
2023-01-03T12:25:04.370Z,320.00
2023-01-03T12:25:57.987Z,322.00
2023-01-03T12:26:57.957Z,323.00
2023-01-03T12:27:57.949Z,323.00
2023-01-03T12:28:58.535Z,322.00
2023-01-03T12:29:57.946Z,322.00
2023-01-03T12:30:57.989Z,324.00
2023-01-03T12:31:57.927Z,325.00
2023-01-03T12:32:57.885Z,323.00
2023-01-03T12:33:57.882Z,319.00
2023-01-03T12:34:57.884Z,317.00
2023-01-03T12:35:57.846Z,317.00
2023-01-03T12:36:57.839Z,317.00
2023-01-03T12:37:57.837Z,315.00
2023-01-03T12:38:57.829Z,314.00
2023-01-03T12:39:57.812Z,316.00
2023-01-03T12:40:57.835Z,316.00
2023-01-03T12:41:57.793Z,317.00
2023-01-03T12:42:57.793Z,318.00
2023-01-03T12:43:57.798Z,321.00
2023-01-03T12:44:57.784Z,324.00
2023-01-03T12:45:57.781Z,323.00
2023-01-03T12:46:57.893Z,323.00
2023-01-03T12:47:57.739Z,320.00
2023-01-03T12:48:57.749Z,316.00
2023-01-03T12:49:57.716Z,316.00
2023-01-03T12:50:57.694Z,314.00
2023-01-03T12:51:57.706Z,316.00
2023-01-03T12:52:57.662Z,317.00
2023-01-03T12:53:57.643Z,317.00
2023-01-03T12:54:57.627Z,319.00
2023-01-03T12:55:57.602Z,322.00
2023-01-03T12:56:57.631Z,321.00
2023-01-03T12:57:57.576Z,319.00
2023-01-03T12:58:57.531Z,320.00
2023-01-03T12:59:57.527Z,321.00
2023-01-03T13:00:57.515Z,320.00
2023-01-03T13:01:57.661Z,320.00
2023-01-03T13:02:57.758Z,318.00
2023-01-03T13:03:57.511Z,317.00
2023-01-03T13:04:57.456Z,318.00
2023-01-03T13:05:57.429Z,320.00
2023-01-03T13:06:57.408Z,320.00
2023-01-03T13:07:57.399Z,317.00
2023-01-03T13:08:57.370Z,320.00
2023-01-03T13:10:00.967Z,320.00
2023-01-03T13:10:57.364Z,319.00
2023-01-03T13:11:57.336Z,317.00
2023-01-03T13:12:57.333Z,319.00
2023-01-03T13:13:57.286Z,321.00
2023-01-03T13:14:57.318Z,321.00
2023-01-03T13:15:57.330Z,321.00
2023-01-03T13:16:57.249Z,318.00
2023-01-03T13:17:57.234Z,320.00
2023-01-03T13:18:57.201Z,321.00
2023-01-03T13:19:57.193Z,319.00
2023-01-03T13:20:57.179Z,323.00
2023-01-03T13:21:57.195Z,323.00
2023-01-03T13:22:57.136Z,326.00
2023-01-03T13:23:57.128Z,327.00
2023-01-03T13:24:57.243Z,324.00
2023-01-03T13:25:57.075Z,323.00
2023-01-03T13:26:57.065Z,321.00
2023-01-03T13:27:57.048Z,321.00
2023-01-03T13:28:57.041Z,322.00
2023-01-03T13:29:57.036Z,322.00
2023-01-03T13:30:57.070Z,321.00
2023-01-03T13:31:56.987Z,318.00
2023-01-03T13:32:56.989Z,320.00
2023-01-03T13:33:56.958Z,316.00
2023-01-03T13:34:56.974Z,318.00
2023-01-03T13:35:56.937Z,318.00
2023-01-03T13:36:56.925Z,317.00
2023-01-03T13:37:56.892Z,318.00
2023-01-03T13:38:56.857Z,320.00
2023-01-03T13:39:56.872Z,319.00
2023-01-03T13:41:57.805Z,323.00
2023-01-03T13:42:56.787Z,322.00
2023-01-03T13:43:56.765Z,322.00
2023-01-03T13:44:56.767Z,322.00
2023-01-03T13:45:56.753Z,321.00
2023-01-03T13:46:56.770Z,321.00
2023-01-03T13:47:56.704Z,321.00
2023-01-03T13:48:56.679Z,319.00
2023-01-03T13:49:56.680Z,320.00
2023-01-03T13:50:56.675Z,318.00
2023-01-03T13:51:56.653Z,318.00
2023-01-03T13:52:57.153Z,319.00
2023-01-03T13:53:56.607Z,320.00
2023-01-03T13:54:56.598Z,321.00
2023-01-03T13:55:56.606Z,322.00
2023-01-03T13:56:56.581Z,323.00
2023-01-03T13:57:56.558Z,323.00
2023-01-03T13:58:56.568Z,321.00
2023-01-03T13:59:56.560Z,318.00
2023-01-03T14:01:01.808Z,318.00
2023-01-03T14:01:57.660Z,319.00
2023-01-03T14:02:56.834Z,322.00
2023-01-03T14:03:56.574Z,321.00
2023-01-03T14:04:56.489Z,320.00
2023-01-03T14:05:56.511Z,323.00
2023-01-03T14:06:56.464Z,325.00
2023-01-03T14:07:56.512Z,328.00
2023-01-03T14:08:56.437Z,329.00
2023-01-03T14:09:56.443Z,329.00
2023-01-03T14:10:56.443Z,328.00
2023-01-03T14:11:56.400Z,329.00
2023-01-03T14:12:56.382Z,329.00
2023-01-03T14:13:56.395Z,327.00
2023-01-03T14:14:56.383Z,326.00
2023-01-03T14:15:56.445Z,324.00
2023-01-03T14:16:56.345Z,325.00
2023-01-03T14:17:56.322Z,325.00
2023-01-03T14:18:56.319Z,327.00
2023-01-03T14:19:56.301Z,327.00
2023-01-03T14:20:56.296Z,324.00
2023-01-03T14:21:56.300Z,326.00
2023-01-03T14:22:56.245Z,327.00
2023-01-03T14:24:01.316Z,326.00
2023-01-03T14:24:57.382Z,327.00
2023-01-03T14:25:56.223Z,328.00
2023-01-03T14:26:56.208Z,330.00
2023-01-03T14:27:56.179Z,331.00
2023-01-03T14:28:56.176Z,333.00
2023-01-03T14:29:56.182Z,334.00
2023-01-03T14:30:56.193Z,334.00
2023-01-03T14:31:56.300Z,336.00
2023-01-03T14:32:56.142Z,334.00
2023-01-03T14:33:56.106Z,333.00
2023-01-03T14:34:56.097Z,335.00
2023-01-03T14:35:56.069Z,336.00
2023-01-03T14:36:56.111Z,335.00
2023-01-03T14:37:56.043Z,332.00
2023-01-03T14:38:56.034Z,332.00
2023-01-03T14:39:56.051Z,334.00
2023-01-03T14:40:56.026Z,335.00
2023-01-03T14:41:56.004Z,335.00
2023-01-03T14:42:55.998Z,335.00
2023-01-03T14:43:55.967Z,334.00
2023-01-03T14:44:55.948Z,337.00
2023-01-03T14:45:55.930Z,336.00
2023-01-03T14:46:56.006Z,338.00
2023-01-03T14:47:55.972Z,338.00
2023-01-03T14:49:02.682Z,336.00
2023-01-03T14:49:56.925Z,333.00
2023-01-03T14:50:55.850Z,331.00
2023-01-03T14:51:55.847Z,330.00
2023-01-03T14:52:56.692Z,331.00
2023-01-03T14:53:55.824Z,332.00
2023-01-03T14:55:01.604Z,334.00
2023-01-03T14:55:56.794Z,334.00
2023-01-03T14:56:55.792Z,332.00
2023-01-03T14:57:55.779Z,331.00
2023-01-03T14:58:55.777Z,328.00
2023-01-03T14:59:55.764Z,328.00
2023-01-03T15:00:55.797Z,329.00
2023-01-03T15:01:55.906Z,334.00
2023-01-03T15:02:55.862Z,331.00
2023-01-03T15:03:55.715Z,328.00
2023-01-03T15:04:55.708Z,326.00
2023-01-03T15:05:55.714Z,324.00
2023-01-03T15:07:02.309Z,323.00
2023-01-03T15:07:56.683Z,322.00
2023-01-03T15:08:55.684Z,324.00
2023-01-03T15:09:55.647Z,322.00
2023-01-03T15:10:55.629Z,323.00
2023-01-03T15:11:55.636Z,324.00
2023-01-03T15:13:00.738Z,324.00
2023-01-03T15:13:55.618Z,326.00
2023-01-03T15:14:55.604Z,324.00
2023-01-03T15:15:55.646Z,321.00
2023-01-03T15:16:55.557Z,320.00
2023-01-03T15:17:55.538Z,321.00
2023-01-03T15:18:55.521Z,320.00
2023-01-03T15:19:55.487Z,320.00
2023-01-03T15:20:55.491Z,319.00
2023-01-03T15:21:55.463Z,321.00
2023-01-03T15:22:55.474Z,323.00
2023-01-03T15:23:55.427Z,323.00
2023-01-03T15:24:55.428Z,323.00
2023-01-03T15:25:55.404Z,322.00
2023-01-03T15:26:55.384Z,322.00
2023-01-03T15:27:55.399Z,320.00
2023-01-03T15:28:55.418Z,319.00
2023-01-03T15:29:55.346Z,321.00
2023-01-03T15:30:55.319Z,321.00
2023-01-03T15:31:55.400Z,324.00
2023-01-03T15:32:55.305Z,322.00
2023-01-03T15:33:55.283Z,324.00
2023-01-03T15:34:55.280Z,323.00
2023-01-03T15:35:55.295Z,321.00
2023-01-03T15:36:55.254Z,323.00
2023-01-03T15:37:55.221Z,327.00
2023-01-03T15:38:55.220Z,324.00
2023-01-03T15:39:55.196Z,322.00
2023-01-03T15:40:55.273Z,319.00
2023-01-03T15:42:12.787Z,319.00
2023-01-03T15:42:58.533Z,321.00
2023-01-03T15:43:55.163Z,318.00
2023-01-03T15:44:55.120Z,319.00
2023-01-03T15:45:55.165Z,317.00
2023-01-03T15:46:55.103Z,317.00
2023-01-03T15:47:55.072Z,317.00
2023-01-03T15:48:55.065Z,316.00
2023-01-03T15:49:55.024Z,314.00
2023-01-03T15:50:55.009Z,313.00
2023-01-03T15:51:55.003Z,313.00
2023-01-03T15:52:55.003Z,315.00
2023-01-03T15:53:54.978Z,315.00
2023-01-03T15:54:54.953Z,318.00
2023-01-03T15:55:54.954Z,315.00
2023-01-03T15:56:54.942Z,317.00
2023-01-03T15:57:54.956Z,316.00
2023-01-03T15:58:54.906Z,317.00
2023-01-03T15:59:54.881Z,315.00
2023-01-03T16:00:54.957Z,315.00
2023-01-03T16:01:55.000Z,313.00
2023-01-03T16:02:54.898Z,315.00
2023-01-03T16:03:54.926Z,311.00
2023-01-03T16:04:54.935Z,313.00
2023-01-03T16:05:54.791Z,316.00
2023-01-03T16:06:54.829Z,317.00
2023-01-03T16:07:54.763Z,319.00
2023-01-03T16:08:54.759Z,319.00
2023-01-03T16:09:54.731Z,318.00
2023-01-03T16:10:54.728Z,321.00
2023-01-03T16:11:54.701Z,321.00
2023-01-03T16:12:54.703Z,319.00
2023-01-03T16:13:54.670Z,317.00
2023-01-03T16:14:54.647Z,317.00
2023-01-03T16:15:54.644Z,317.00
2023-01-03T16:16:54.705Z,317.00
2023-01-03T16:17:54.599Z,316.00
2023-01-03T16:18:54.610Z,318.00
2023-01-03T16:19:54.576Z,320.00
2023-01-03T16:20:54.603Z,322.00
2023-01-03T16:22:24.628Z,320.00
2023-01-03T16:23:00.443Z,318.00
2023-01-03T16:23:55.527Z,317.00
2023-01-03T16:24:54.508Z,318.00
2023-01-03T16:25:54.504Z,319.00
2023-01-03T16:26:54.478Z,320.00
2023-01-03T16:27:54.476Z,320.00
2023-01-03T16:28:54.457Z,322.00
2023-01-03T16:29:54.454Z,322.00
2023-01-03T16:30:54.456Z,323.00
2023-01-03T16:31:54.471Z,324.00
2023-01-03T16:32:54.495Z,323.00
2023-01-03T16:33:54.476Z,321.00
2023-01-03T16:34:54.390Z,323.00
2023-01-03T16:35:54.395Z,324.00
2023-01-03T16:36:54.417Z,323.00
2023-01-03T16:37:54.355Z,321.00
2023-01-03T16:38:54.343Z,322.00
2023-01-03T16:39:54.356Z,321.00
2023-01-03T16:40:54.294Z,320.00
2023-01-03T16:41:54.299Z,320.00
2023-01-03T16:42:54.276Z,320.00
2023-01-03T16:43:54.287Z,320.00
2023-01-03T16:44:54.244Z,320.00
2023-01-03T16:45:54.380Z,320.00
2023-01-03T16:46:54.204Z,318.00
2023-01-03T16:47:54.181Z,317.00
2023-01-03T16:48:54.207Z,317.00
2023-01-03T16:49:54.159Z,318.00
2023-01-03T16:50:54.159Z,320.00
2023-01-03T16:51:57.826Z,320.00
2023-01-03T16:52:54.085Z,318.00
2023-01-03T16:53:54.081Z,317.00
2023-01-03T16:54:54.053Z,319.00
2023-01-03T16:55:54.053Z,320.00
2023-01-03T16:56:54.057Z,321.00
2023-01-03T16:57:55.084Z,320.00
2023-01-03T16:58:54.018Z,319.00
2023-01-03T16:59:54.000Z,316.00
2023-01-03T17:00:53.973Z,314.00
2023-01-03T17:01:54.087Z,313.00
2023-01-03T17:02:54.180Z,313.00
2023-01-03T17:03:53.967Z,312.00
2023-01-03T17:04:53.905Z,312.00
2023-01-03T17:05:53.863Z,309.00
2023-01-03T17:06:53.845Z,310.00
2023-01-03T17:07:53.896Z,314.00
2023-01-03T17:08:53.881Z,313.00
2023-01-03T17:09:53.811Z,312.00
2023-01-03T17:10:53.774Z,314.00
2023-01-03T17:11:53.774Z,312.00
2023-01-03T17:12:53.759Z,312.00
2023-01-03T17:13:53.729Z,311.00
2023-01-03T17:14:53.727Z,312.00
2023-01-03T17:15:53.713Z,313.00
2023-01-03T17:16:53.803Z,313.00
2023-01-03T17:17:53.669Z,314.00
2023-01-03T17:18:53.666Z,316.00
2023-01-03T17:20:04.144Z,316.00
2023-01-03T17:20:54.638Z,316.00
2023-01-03T17:21:53.592Z,315.00
2023-01-03T17:22:53.604Z,313.00
2023-01-03T17:23:53.565Z,310.00
2023-01-03T17:24:53.569Z,310.00
2023-01-03T17:25:53.522Z,312.00
2023-01-03T17:26:53.505Z,312.00
2023-01-03T17:27:53.472Z,310.00
2023-01-03T17:28:53.484Z,309.00
2023-01-03T17:29:53.445Z,310.00
2023-01-03T17:30:53.493Z,312.00
2023-01-03T17:31:53.417Z,310.00
2023-01-03T17:32:53.394Z,311.00
2023-01-03T17:33:53.392Z,311.00
2023-01-03T17:34:53.376Z,311.00
2023-01-03T17:35:53.346Z,312.00
2023-01-03T17:36:53.343Z,316.00
2023-01-03T17:38:25.236Z,314.00
2023-01-03T17:38:54.308Z,315.00
2023-01-03T17:39:53.310Z,316.00
2023-01-03T17:40:53.289Z,319.00
2023-01-03T17:41:53.293Z,319.00
2023-01-03T17:42:53.275Z,319.00
2023-01-03T17:43:53.231Z,319.00
2023-01-03T17:44:53.232Z,318.00
2023-01-03T17:45:53.318Z,315.00
2023-01-03T17:46:53.278Z,314.00
2023-01-03T17:47:53.189Z,311.00
2023-01-03T17:48:53.755Z,313.00
2023-01-03T17:49:53.136Z,313.00
2023-01-03T17:50:53.132Z,312.00
2023-01-03T17:51:53.131Z,312.00
2023-01-03T17:52:55.937Z,312.00
2023-01-03T17:53:53.083Z,311.00
2023-01-03T17:54:53.066Z,309.00
2023-01-03T17:55:53.051Z,312.00
2023-01-03T17:56:53.039Z,314.00
2023-01-03T17:57:53.061Z,311.00
2023-01-03T17:58:56.303Z,310.00
2023-01-03T17:59:52.992Z,311.00
2023-01-03T18:00:52.986Z,310.00
2023-01-03T18:01:53.056Z,312.00
2023-01-03T18:02:53.182Z,313.00
2023-01-03T18:03:53.037Z,313.00
2023-01-03T18:05:53.914Z,311.00
2023-01-03T18:06:52.874Z,308.00
2023-01-03T18:07:52.861Z,309.00
2023-01-03T18:08:52.852Z,309.00
2023-01-03T18:09:52.843Z,309.00
2023-01-03T18:10:52.818Z,313.00
2023-01-03T18:12:52.792Z,316.00
2023-01-03T18:13:52.855Z,317.00
2023-01-03T18:14:52.721Z,315.00
2023-01-03T18:15:52.755Z,315.00
2023-01-03T18:16:55.210Z,317.00
2023-01-03T18:17:52.724Z,316.00
2023-01-03T18:18:52.670Z,318.00
2023-01-03T18:32:52.427Z,308.00
2023-01-03T18:33:52.393Z,308.00
2023-01-03T18:34:52.385Z,307.00
2023-01-03T18:35:52.709Z,308.00
2023-01-03T18:36:52.348Z,305.00
2023-01-03T18:37:52.340Z,303.00